Clinton, CT (06413)

4:48 AM EST on December 25, 2014 (GMT -0500)
Spencerhill | Change Station
CLOSE
Current Station
Personal Weather Station
Location: Clinton, CT
Elevation: 238 ft
Nearby Weather Stations
Active Advisory: Dense Fog Advisory Active Notice: Record Report

Elev 238 ft 41.31 °N, 72.57 °W | Updated 13 minutes ago

Overcast
Overcast
54.9 °F
Feels Like 54.9 °F
N
3.2
Wind Variable Wind from South

Today
High -- | Low -- °F
--% Chance of Precip.
Yesterday
High -- | Low -- °F
Precip. -- in
7:14 AM 4:26 PM
Waxing Crescent, 15% visible
Pressure 29.52 in
Visibility 2.5 miles
Clouds Overcast 100 ft
Dew Point 54 °F
Humidity 95%
Rainfall 0.00 in
Snow Depth Not available.
UV 0 out of 12
Pollen .10 out of 12
Air Quality Not available.
Flu Activity Not available.
METAR KSNC 250935Z AUTO 23008KT 2 1/2SM BR OVC001 13/13 A2952 RMK AO2

More Conditions Fewer Conditions

Pressure 29.52 in
Visibility 2.5 miles
Clouds Overcast 100 ft
Dew Point 54 °F
Humidity 95%
Rainfall 0.00 in
Snow Depth Not available.
UV 0 out of 12
Pollen .10 out of 12
Air Quality Not available.
Flu Activity Not available.
METAR KSNC 250935Z AUTO 23008KT 2 1/2SM BR OVC001 13/13 A2952 RMK AO2

More Conditions Fewer Conditions

10-Day Weather Forecast

Almanac

Astronomy

Dec. 25, 2014 Rise Set
Actual Time
Civil Twilight
Nautical Twilight
Astronomical Twilight
Moon
Length of Visible Light
Length of Day
Tomorrow will be .
, % of the Moon is Illuminated

Today's Extremes

State Highs State Lows

Community

WunderPhotos

Upload Photos

1,780,251 photos uploaded!

WunderBlogs® & News

Nearby

Air Quality

  Air Quality AQ Index Pollutant
Not available.

Snow Depth

Station Depth Elevation

Earthquake Activity

City Distance Mag. Time & Date
Minimum magnitude displayed is 2.5.

Coastal Water Temperatures

Place Temperature

Nearby Weather Stations